createdAt,value
2018-04-24T00:02:05.685Z,86.08
2018-04-24T00:04:33.947Z,87.26
2018-04-24T00:07:02.372Z,86.51
2018-04-24T00:09:30.631Z,87.15
2018-04-24T00:11:58.879Z,87.03
2018-04-24T00:14:27.161Z,87.69
2018-04-24T00:16:55.423Z,86.68
2018-04-24T00:19:23.706Z,87.71
2018-04-24T00:21:51.986Z,89.57
2018-04-24T00:24:20.242Z,89.75
2018-04-24T00:26:49.290Z,88.87
2018-04-24T00:29:17.578Z,88.50
2018-04-24T00:31:45.938Z,88.62
2018-04-24T00:34:14.232Z,89.10
2018-04-24T00:36:42.482Z,88.66
2018-04-24T00:39:10.750Z,88.19
2018-04-24T00:41:39.022Z,88.23
2018-04-24T00:44:07.308Z,88.66
2018-04-24T00:46:35.571Z,88.90
2018-04-24T00:49:03.852Z,89.08
2018-04-24T00:51:32.130Z,88.74
2018-04-24T00:54:00.407Z,89.60
2018-04-24T00:56:28.679Z,89.22
2018-04-24T00:58:56.956Z,89.09
2018-04-24T01:01:25.310Z,88.58
2018-04-24T01:03:54.346Z,88.36
2018-04-24T01:06:22.611Z,87.99
2018-04-24T01:08:50.987Z,88.84
2018-04-24T01:11:19.299Z,88.96
2018-04-24T01:13:47.518Z,89.28
2018-04-24T01:16:15.786Z,89.05
2018-04-24T01:18:44.845Z,89.30
2018-04-24T01:21:13.119Z,89.29
2018-04-24T01:23:41.391Z,88.58
2018-04-24T01:26:09.658Z,89.16
2018-04-24T01:28:37.966Z,88.37
2018-04-24T01:31:06.215Z,88.55
2018-04-24T01:33:34.563Z,88.73
2018-04-24T01:36:02.839Z,89.18
2018-04-24T01:38:31.118Z,89.06
2018-04-24T01:40:59.392Z,89.32
2018-04-24T01:43:27.670Z,89.30
2018-04-24T01:45:55.950Z,89.11
2018-04-24T01:48:24.239Z,89.23
2018-04-24T01:50:52.492Z,90.20
2018-04-24T01:53:20.752Z,89.76
2018-04-24T01:55:49.050Z,89.91
2018-04-24T01:58:17.351Z,90.65
2018-04-24T02:00:45.603Z,90.95
2018-04-24T02:03:13.986Z,91.17
2018-04-24T02:05:42.242Z,91.25
2018-04-24T02:08:11.726Z,90.47
2018-04-24T02:10:40.782Z,90.33
2018-04-24T02:13:09.042Z,90.11
2018-04-24T02:15:37.307Z,90.26
2018-04-24T02:18:05.615Z,90.33
2018-04-24T02:20:33.879Z,90.83
2018-04-24T02:23:02.146Z,90.92
2018-04-24T02:25:30.543Z,92.71
2018-04-24T02:27:58.806Z,92.35
2018-04-24T02:30:27.084Z,92.15
2018-04-24T02:32:55.355Z,91.67
2018-04-24T02:35:23.611Z,91.60
2018-04-24T02:37:51.883Z,91.13
2018-04-24T02:40:20.208Z,90.87
2018-04-24T02:42:48.461Z,90.97
2018-04-24T02:45:16.731Z,90.25
2018-04-24T02:47:45.007Z,90.31
2018-04-24T02:50:13.264Z,91.03
2018-04-24T02:52:41.555Z,90.53
2018-04-24T02:55:09.838Z,90.50
2018-04-24T02:57:38.100Z,90.59
2018-04-24T03:00:06.383Z,90.00
2018-04-24T03:02:34.661Z,90.03
2018-04-24T03:05:02.952Z,89.97
2018-04-24T03:07:31.555Z,90.51
2018-04-24T03:09:59.804Z,90.42
2018-04-24T03:12:28.067Z,90.51
2018-04-24T03:14:56.342Z,90.73
2018-04-24T03:17:24.623Z,90.85
2018-04-24T03:19:52.902Z,90.75
2018-04-24T03:22:21.143Z,90.58
2018-04-24T03:24:50.158Z,90.30
2018-04-24T03:27:18.443Z,89.83
2018-04-24T03:29:46.711Z,89.27
2018-04-24T03:32:15.000Z,89.92
2018-04-24T03:34:43.278Z,90.21
2018-04-24T03:37:11.558Z,91.40
2018-04-24T03:39:39.824Z,91.96
2018-04-24T03:42:08.124Z,93.64
2018-04-24T03:44:36.370Z,93.79
2018-04-24T03:47:04.660Z,93.24
2018-04-24T03:49:32.992Z,92.15
2018-04-24T03:52:01.306Z,91.79
2018-04-24T03:54:29.747Z,91.75
2018-04-24T03:56:58.882Z,90.97
2018-04-24T03:59:27.227Z,90.60
2018-04-24T04:01:55.566Z,90.88
2018-04-24T04:04:23.936Z,90.85
2018-04-24T04:06:52.281Z,91.26
2018-04-24T04:09:20.601Z,91.87
2018-04-24T04:11:48.984Z,91.74
2018-04-24T04:14:17.336Z,91.86
2018-04-24T04:16:45.717Z,91.39
2018-04-24T04:19:31.990Z,90.81
2018-04-24T04:22:19.190Z,91.54
2018-04-24T04:24:49.115Z,91.01
2018-04-24T04:27:17.459Z,91.42
2018-04-24T04:29:45.806Z,93.02
2018-04-24T04:32:14.163Z,93.69
2018-04-24T04:34:42.520Z,93.75
2018-04-24T04:37:11.648Z,93.65
2018-04-24T04:39:39.981Z,93.90
2018-04-24T04:42:08.350Z,93.25
2018-04-24T04:44:37.465Z,93.56
2018-04-24T04:47:06.555Z,93.70
2018-04-24T04:49:35.676Z,93.12
2018-04-24T04:52:04.052Z,93.81
2018-04-24T04:54:32.427Z,93.08
2018-04-24T04:57:00.764Z,93.11
2018-04-24T04:59:29.123Z,92.65
2018-04-24T05:01:57.469Z,92.62
2018-04-24T05:04:25.875Z,92.33
2018-04-24T05:06:54.196Z,92.34
2018-04-24T05:09:22.540Z,92.30
2018-04-24T05:11:50.835Z,92.15
2018-04-24T05:14:19.154Z,92.75
2018-04-24T05:16:47.627Z,92.69
2018-04-24T05:19:16.723Z,91.73
2018-04-24T05:21:45.845Z,93.17
2018-04-24T05:24:14.238Z,92.04
2018-04-24T05:26:42.616Z,91.48
2018-04-24T05:29:10.953Z,91.64
2018-04-24T05:31:39.308Z,91.13
2018-04-24T05:34:08.583Z,90.47
2018-04-24T05:36:36.917Z,90.36
2018-04-24T05:39:05.214Z,90.15
2018-04-24T05:41:33.630Z,90.43
2018-04-24T05:44:01.979Z,89.77
2018-04-24T05:46:30.391Z,88.66
2018-04-24T05:48:58.753Z,88.63
2018-04-24T05:51:27.104Z,88.11
2018-04-24T05:53:55.460Z,86.80
2018-04-24T05:56:23.812Z,86.51
2018-04-24T05:58:52.171Z,85.52
2018-04-24T06:01:20.500Z,84.98
2018-04-24T06:03:48.858Z,85.86
2018-04-24T06:06:17.224Z,85.91
2018-04-24T06:08:45.614Z,84.87
2018-04-24T06:11:14.731Z,84.29
2018-04-24T06:13:43.063Z,84.75
2018-04-24T06:16:11.410Z,83.87
2018-04-24T06:18:39.753Z,84.59
2018-04-24T06:21:08.123Z,84.83
2018-04-24T06:23:37.223Z,84.39
2018-04-24T06:26:06.315Z,84.18
2018-04-24T06:28:35.543Z,84.01
2018-04-24T06:31:03.824Z,83.12
2018-04-24T06:33:32.133Z,82.38
2018-04-24T06:36:00.512Z,83.12
2018-04-24T06:38:28.873Z,81.69
2018-04-24T06:40:57.225Z,81.96
2018-04-24T06:43:25.576Z,81.01
2018-04-24T06:45:54.671Z,81.12
2018-04-24T06:48:23.141Z,81.09
2018-04-24T06:50:51.533Z,79.96
2018-04-24T06:53:20.679Z,81.03
2018-04-24T06:55:49.063Z,79.32
2018-04-24T06:58:17.409Z,78.28
2018-04-24T07:00:45.731Z,78.03
2018-04-24T07:03:14.055Z,79.04
2018-04-24T07:05:42.403Z,77.83
2018-04-24T07:08:10.744Z,76.38
2018-04-24T07:10:39.123Z,74.57
2018-04-24T07:13:07.470Z,74.03
2018-04-24T07:15:35.828Z,75.11
2018-04-24T07:18:04.161Z,75.43
2018-04-24T07:20:32.517Z,74.72
2018-04-24T07:23:00.876Z,75.39
2018-04-24T07:25:29.262Z,74.23
2018-04-24T07:27:58.375Z,72.02
2018-04-24T07:30:26.741Z,72.83
2018-04-24T07:32:55.110Z,72.06
2018-04-24T07:35:23.452Z,72.16
2018-04-24T07:37:51.835Z,71.01
2018-04-24T07:40:20.176Z,70.51
2018-04-24T07:42:48.569Z,71.75
2018-04-24T07:45:16.925Z,71.23
2018-04-24T07:47:45.253Z,71.11
2018-04-24T07:50:14.404Z,70.88
2018-04-24T07:52:42.758Z,69.99
2018-04-24T07:55:11.097Z,69.71
2018-04-24T07:57:39.437Z,70.79
2018-04-24T08:00:07.794Z,70.43
2018-04-24T08:02:36.177Z,68.51
2018-04-24T08:05:04.548Z,68.53
2018-04-24T08:07:33.672Z,67.95
2018-04-24T08:10:02.004Z,67.66
2018-04-24T08:12:31.128Z,66.74
2018-04-24T08:14:59.472Z,66.56
2018-04-24T08:17:28.631Z,67.11
2018-04-24T08:19:57.039Z,66.61
2018-04-24T08:22:25.272Z,66.99
2018-04-24T08:24:53.551Z,67.00
2018-04-24T08:27:21.849Z,66.29
2018-04-24T08:29:50.111Z,66.37
2018-04-24T08:32:18.447Z,65.88
2018-04-24T08:34:47.471Z,65.62
2018-04-24T08:37:15.752Z,66.18
2018-04-24T08:39:44.024Z,64.85
2018-04-24T08:42:12.299Z,64.67
2018-04-24T08:44:40.568Z,64.33
2018-04-24T08:47:08.848Z,64.70
2018-04-24T08:49:37.134Z,63.11
2018-04-24T08:52:05.415Z,62.88
2018-04-24T08:54:33.799Z,63.49
2018-04-24T08:57:02.067Z,63.64
2018-04-24T08:59:30.354Z,63.25
2018-04-24T09:01:58.688Z,61.48
2018-04-24T09:04:26.928Z,61.52
2018-04-24T09:06:55.215Z,62.68
2018-04-24T09:09:23.479Z,62.66
2018-04-24T09:11:51.760Z,62.03
2018-04-24T09:14:20.031Z,60.93
2018-04-24T09:16:48.387Z,62.28
2018-04-24T09:19:16.663Z,59.84
2018-04-24T09:21:44.927Z,59.30
2018-04-24T09:24:13.319Z,58.74
2018-04-24T09:26:41.582Z,58.30
2018-04-24T09:29:09.855Z,58.27
2018-04-24T09:31:44.098Z,57.85
2018-04-24T09:34:12.386Z,58.07
2018-04-24T09:36:40.655Z,56.68
2018-04-24T09:39:08.938Z,58.03
2018-04-24T09:41:38.732Z,56.44
2018-04-24T09:44:06.995Z,57.69
2018-04-24T09:46:35.278Z,56.45
2018-04-24T09:49:03.651Z,57.15
2018-04-24T09:51:32.028Z,57.74
2018-04-24T09:54:00.419Z,59.09
2018-04-24T09:56:28.692Z,58.21
2018-04-24T09:58:56.966Z,57.42
2018-04-24T10:01:27.055Z,59.33
2018-04-24T10:03:55.347Z,59.09
2018-04-24T10:06:23.626Z,60.32
2018-04-24T10:08:51.915Z,60.28
2018-04-24T10:11:20.223Z,61.32
2018-04-24T10:13:48.503Z,60.71
2018-04-24T10:16:16.772Z,61.03
2018-04-24T10:18:45.120Z,61.18
2018-04-24T10:21:13.397Z,61.88
2018-04-24T10:23:41.767Z,61.04
2018-04-24T10:26:10.052Z,62.14
2018-04-24T10:28:38.321Z,62.42
2018-04-24T10:31:06.599Z,61.49
2018-04-24T10:33:34.873Z,61.60
2018-04-24T10:36:03.128Z,60.38
2018-04-24T10:38:32.472Z,61.45
2018-04-24T10:41:00.743Z,62.28
2018-04-24T10:43:29.055Z,62.11
2018-04-24T10:45:57.311Z,62.07
2018-04-24T10:48:25.591Z,60.81
2018-04-24T10:50:53.872Z,61.96
2018-04-24T10:53:22.207Z,61.79
2018-04-24T10:55:50.547Z,62.24
2018-04-24T10:58:18.793Z,61.21
2018-04-24T11:00:47.153Z,61.02
2018-04-24T11:03:15.538Z,60.67
2018-04-24T11:05:43.889Z,61.84
2018-04-24T11:08:12.162Z,61.22
2018-04-24T11:10:40.466Z,61.23
2018-04-24T11:13:08.930Z,61.08
2018-04-24T11:15:37.217Z,62.14
2018-04-24T11:18:05.486Z,62.31
2018-04-24T11:20:33.752Z,62.06
2018-04-24T11:23:02.056Z,62.22
2018-04-24T11:25:30.326Z,62.69
2018-04-24T11:27:58.603Z,61.31
2018-04-24T11:30:26.872Z,61.68
2018-04-24T11:32:55.146Z,62.49
2018-04-24T11:35:23.429Z,63.73
2018-04-24T11:37:51.710Z,63.62
2018-04-24T11:40:20.081Z,64.54
2018-04-24T11:42:48.572Z,64.21
2018-04-24T11:45:16.828Z,64.30
2018-04-24T11:47:45.229Z,63.76
2018-04-24T11:50:13.496Z,64.44
2018-04-24T11:52:41.767Z,65.16
2018-04-24T11:55:10.051Z,63.41
2018-04-24T11:57:38.323Z,63.41
2018-04-24T12:00:06.612Z,63.26
2018-04-24T12:02:34.916Z,64.10
2018-04-24T12:05:03.164Z,65.05
2018-04-24T12:07:31.431Z,63.62
2018-04-24T12:09:59.777Z,62.70
2018-04-24T12:12:27.980Z,64.45
2018-04-24T12:14:56.261Z,63.26
2018-04-24T12:17:24.522Z,64.53
2018-04-24T12:19:52.823Z,62.17
2018-04-24T12:22:21.085Z,61.06
2018-04-24T12:24:49.366Z,62.16
2018-04-24T12:27:17.635Z,62.68
2018-04-24T12:29:45.921Z,61.45
2018-04-24T12:32:14.212Z,62.23
2018-04-24T12:34:42.482Z,62.78
2018-04-24T12:37:10.787Z,61.86
2018-04-24T12:39:40.555Z,61.42
2018-04-24T12:42:08.924Z,60.74
2018-04-24T12:44:37.190Z,60.37
2018-04-24T12:47:05.498Z,60.17
2018-04-24T12:49:33.772Z,59.50
2018-04-24T12:52:02.059Z,58.20
2018-04-24T12:54:30.327Z,58.52
2018-04-24T12:56:58.602Z,58.98
2018-04-24T12:59:26.867Z,59.33
2018-04-24T13:01:55.151Z,61.52
2018-04-24T13:04:23.511Z,61.27
2018-04-24T13:06:51.799Z,62.51
2018-04-24T13:09:20.100Z,60.64
2018-04-24T13:11:48.387Z,60.57
2018-04-24T13:14:17.449Z,60.61
2018-04-24T13:16:45.705Z,60.48
2018-04-24T13:19:13.992Z,59.82
2018-04-24T13:21:42.255Z,60.34
2018-04-24T13:24:10.553Z,57.79
2018-04-24T13:26:38.976Z,60.17
2018-04-24T13:29:07.247Z,60.06
2018-04-24T13:31:35.603Z,59.27
2018-04-24T13:34:03.883Z,59.60
2018-04-24T13:36:32.205Z,58.25
2018-04-24T13:39:00.520Z,58.12
2018-04-24T13:41:28.889Z,57.18
2018-04-24T13:43:57.157Z,57.02
2018-04-24T13:46:25.547Z,55.22
2018-04-24T13:48:54.011Z,55.13
2018-04-24T13:51:22.296Z,54.43
2018-04-24T13:53:50.590Z,54.29
2018-04-24T13:56:18.963Z,54.42
2018-04-24T13:58:47.252Z,53.47
2018-04-24T14:01:15.607Z,53.74
2018-04-24T14:03:43.913Z,52.32
2018-04-24T14:06:12.268Z,53.59
2018-04-24T14:08:40.537Z,54.99
2018-04-24T14:11:08.915Z,54.33
2018-04-24T14:13:37.610Z,53.66
2018-04-24T14:16:05.982Z,54.30
2018-04-24T14:18:34.238Z,52.79
2018-04-24T14:21:02.517Z,52.92
2018-04-24T14:23:30.819Z,52.78
2018-04-24T14:25:59.066Z,51.88
2018-04-24T14:28:27.354Z,51.76
2018-04-24T14:30:55.651Z,52.73
2018-04-24T14:33:23.969Z,52.08
2018-04-24T14:35:52.245Z,51.26
2018-04-24T14:38:20.523Z,51.92
2018-04-24T14:40:50.293Z,51.77
2018-04-24T14:43:18.599Z,50.96
2018-04-24T14:45:46.935Z,50.95
2018-04-24T14:48:15.212Z,50.52
2018-04-24T14:50:43.520Z,50.39
2018-04-24T14:53:11.886Z,50.11
2018-04-24T14:55:40.190Z,49.48
2018-04-24T14:58:08.459Z,49.15
2018-04-24T15:00:36.746Z,46.96
2018-04-24T15:03:06.559Z,44.56
2018-04-24T15:05:34.819Z,45.53
2018-04-24T15:08:03.107Z,46.10
2018-04-24T15:10:31.449Z,46.19
2018-04-24T15:12:59.701Z,46.34
2018-04-24T15:15:28.171Z,45.41
2018-04-24T15:17:57.195Z,45.01
2018-04-24T15:20:25.529Z,45.59
2018-04-24T15:22:53.760Z,47.74
2018-04-24T15:25:22.121Z,48.02
2018-04-24T15:27:50.409Z,47.96
2018-04-24T15:30:18.675Z,47.29
2018-04-24T15:32:46.964Z,46.64
2018-04-24T15:35:15.231Z,46.70
2018-04-24T15:37:43.531Z,47.02
2018-04-24T15:40:11.808Z,47.82
2018-04-24T15:42:40.063Z,47.94
2018-04-24T15:45:08.351Z,48.56
2018-04-24T15:47:36.711Z,48.20
2018-04-24T15:50:05.005Z,46.13
2018-04-24T15:52:33.354Z,46.79
2018-04-24T15:55:01.668Z,47.53
2018-04-24T15:57:30.747Z,47.73
2018-04-24T15:59:59.026Z,47.50
2018-04-24T16:02:27.343Z,47.69
2018-04-24T16:04:55.611Z,48.52
2018-04-24T16:07:23.948Z,49.83
2018-04-24T16:09:52.243Z,51.79
2018-04-24T16:12:20.511Z,53.60
2018-04-24T16:14:48.815Z,55.72
2018-04-24T16:17:17.076Z,56.09
2018-04-24T16:19:45.439Z,57.48
2018-04-24T16:22:13.723Z,59.30
2018-04-24T16:24:41.983Z,60.58
2018-04-24T16:27:10.280Z,58.58
2018-04-24T16:29:38.623Z,59.08
2018-04-24T16:32:06.832Z,57.81
2018-04-24T16:34:35.191Z,56.92
2018-04-24T16:37:03.460Z,57.67
2018-04-24T16:39:31.766Z,57.52
2018-04-24T16:42:00.038Z,57.03
2018-04-24T16:44:28.318Z,56.43
2018-04-24T16:46:56.609Z,55.91
2018-04-24T16:49:24.903Z,54.37
2018-04-24T16:51:53.943Z,55.69
2018-04-24T16:54:22.215Z,57.30
2018-04-24T16:56:50.586Z,54.60
2018-04-24T16:59:18.868Z,55.38
2018-04-24T17:01:47.251Z,56.41
2018-04-24T17:04:15.521Z,56.81
2018-04-24T17:06:43.826Z,57.75
2018-04-24T17:09:12.096Z,57.69
2018-04-24T17:11:40.455Z,57.73
2018-04-24T17:14:08.782Z,57.31
2018-04-24T17:16:37.027Z,58.24
2018-04-24T17:19:05.323Z,59.37
2018-04-24T17:21:33.600Z,60.17
2018-04-24T17:24:01.864Z,60.46
2018-04-24T17:26:30.151Z,60.84
2018-04-24T17:28:58.423Z,61.50
2018-04-24T17:31:26.796Z,61.88
2018-04-24T17:33:55.081Z,62.32
2018-04-24T17:36:23.418Z,62.60
2018-04-24T17:38:51.698Z,62.02
2018-04-24T17:41:19.991Z,62.37
2018-04-24T17:43:48.325Z,62.72
2018-04-24T17:46:17.421Z,63.25
2018-04-24T17:48:45.719Z,62.75
2018-04-24T17:51:14.513Z,62.56
2018-04-24T17:53:42.875Z,62.70
2018-04-24T17:56:11.371Z,62.42
2018-04-24T17:58:39.657Z,63.35
2018-04-24T18:01:08.238Z,63.47
2018-04-24T18:03:37.816Z,63.73
2018-04-24T18:06:07.728Z,63.89
2018-04-24T18:08:36.621Z,64.20
2018-04-24T18:11:05.594Z,64.66
2018-04-24T18:13:34.913Z,64.46
2018-04-24T18:16:05.060Z,64.49
2018-04-24T18:18:35.897Z,65.08
2018-04-24T18:21:05.887Z,65.35
2018-04-24T18:23:35.657Z,65.64
2018-04-24T18:26:05.575Z,66.62
2018-04-24T18:28:35.353Z,65.13
2018-04-24T18:31:05.376Z,64.97
2018-04-24T18:33:35.283Z,65.37
2018-04-24T18:36:05.235Z,65.36
2018-04-24T18:38:35.115Z,65.39
2018-04-24T18:41:05.861Z,65.75
2018-04-24T18:43:35.858Z,65.90
2018-04-24T18:46:06.903Z,66.23
2018-04-24T18:48:37.614Z,66.82
2018-04-24T18:51:08.375Z,66.51
2018-04-24T18:53:39.012Z,66.74
2018-04-24T18:56:09.682Z,66.90
2018-04-24T18:58:39.510Z,67.10
2018-04-24T19:01:09.489Z,66.92
2018-04-24T19:03:39.507Z,67.49
2018-04-24T19:06:09.885Z,68.08
2018-04-24T19:08:40.585Z,68.43
2018-04-24T19:11:10.935Z,68.25
2018-04-24T19:13:42.250Z,67.37
2018-04-24T19:16:12.441Z,69.98
2018-04-24T19:18:47.586Z,68.55
2018-04-24T19:21:17.475Z,67.91
2018-04-24T19:23:47.741Z,67.87
2018-04-24T19:26:18.303Z,68.07
2018-04-24T19:28:48.001Z,68.41
2018-04-24T19:31:23.579Z,68.59
2018-04-24T19:33:53.402Z,69.16
2018-04-24T19:36:23.211Z,68.73
2018-04-24T19:38:59.054Z,68.76
2018-04-24T19:41:34.116Z,69.01
2018-04-24T19:44:03.939Z,69.73
2018-04-24T19:46:34.057Z,70.25
2018-04-24T19:49:09.194Z,70.30
2018-04-24T19:51:39.323Z,71.06
2018-04-24T19:54:09.262Z,70.53
2018-04-24T19:56:39.258Z,70.12
2018-04-24T19:59:09.186Z,69.10
2018-04-24T20:01:39.293Z,69.47
2018-04-24T20:04:09.686Z,69.92
2018-04-24T20:06:39.915Z,69.96
2018-04-24T20:09:09.726Z,70.01
2018-04-24T20:11:39.657Z,69.70
2018-04-24T20:14:09.613Z,69.62
2018-04-24T20:16:39.451Z,70.25
2018-04-24T20:19:10.695Z,69.88
2018-04-24T20:21:41.748Z,70.16
2018-04-24T20:24:11.554Z,69.58
2018-04-24T20:26:42.274Z,69.01
2018-04-24T20:29:12.133Z,69.02
2018-04-24T20:31:42.024Z,69.11
2018-04-24T20:34:12.603Z,68.91
2018-04-24T20:36:42.516Z,68.61
2018-04-24T20:39:12.276Z,68.21
2018-04-24T20:41:43.359Z,69.44
2018-04-24T20:44:13.424Z,68.51
2018-04-24T20:46:44.079Z,69.09
2018-04-24T20:49:13.851Z,67.82
2018-04-24T20:51:43.760Z,67.76
2018-04-24T20:54:13.839Z,67.72
2018-04-24T20:56:43.821Z,69.50
2018-04-24T20:59:13.287Z,69.44
2018-04-24T21:01:41.708Z,71.00
2018-04-24T21:04:10.006Z,70.32
2018-04-24T21:06:38.303Z,71.13
2018-04-24T21:09:06.592Z,68.37
2018-04-24T21:11:34.983Z,69.68
2018-04-24T21:14:04.046Z,69.02
2018-04-24T21:16:32.349Z,69.93
2018-04-24T21:19:00.637Z,68.17
2018-04-24T21:21:29.714Z,68.25
2018-04-24T21:23:57.991Z,68.54
2018-04-24T21:26:26.256Z,68.43
2018-04-24T21:28:54.535Z,68.48
2018-04-24T21:31:22.797Z,68.84
2018-04-24T21:33:51.091Z,69.64
2018-04-24T21:36:19.350Z,69.96
2018-04-24T21:38:47.617Z,71.01
2018-04-24T21:41:16.019Z,71.72
2018-04-24T21:43:44.262Z,72.13
2018-04-24T21:46:12.651Z,72.89
2018-04-24T21:48:41.011Z,72.59
2018-04-24T21:51:09.279Z,73.33
2018-04-24T21:53:37.562Z,72.82
2018-04-24T21:56:05.845Z,73.65
2018-04-24T21:58:34.135Z,73.67
2018-04-24T22:01:02.587Z,74.12
2018-04-24T22:03:30.848Z,74.27
2018-04-24T22:05:59.891Z,73.77
2018-04-24T22:08:28.244Z,74.30
2018-04-24T22:10:56.532Z,74.45
2018-04-24T22:13:24.889Z,74.30
2018-04-24T22:15:53.086Z,74.41
2018-04-24T22:18:21.364Z,74.70
2018-04-24T22:20:49.726Z,74.76
2018-04-24T22:23:18.127Z,74.84
2018-04-24T22:25:46.407Z,74.77
2018-04-24T22:28:14.683Z,74.81
2018-04-24T22:30:42.962Z,75.09
2018-04-24T22:33:11.234Z,74.61
2018-04-24T22:35:39.520Z,74.93
2018-04-24T22:38:07.783Z,75.07
2018-04-24T22:40:36.085Z,75.05
2018-04-24T22:45:31.923Z,74.60
2018-04-24T22:48:01.079Z,75.74
2018-04-24T22:50:29.351Z,76.38
2018-04-24T22:52:57.611Z,76.60
2018-04-24T22:55:25.903Z,76.45
2018-04-24T22:57:54.163Z,76.71
2018-04-24T23:00:22.470Z,77.21
2018-04-24T23:02:50.747Z,77.75
2018-04-24T23:05:19.014Z,78.66
2018-04-24T23:07:47.293Z,78.52
2018-04-24T23:10:33.452Z,79.43
2018-04-24T23:13:20.247Z,79.69
2018-04-24T23:16:06.223Z,79.55
2018-04-24T23:18:53.227Z,78.93
2018-04-24T23:21:20.766Z,80.55
2018-04-24T23:23:49.042Z,80.42
2018-04-24T23:26:17.303Z,81.46
2018-04-24T23:28:45.598Z,81.82
2018-04-24T23:31:13.975Z,81.14
2018-04-24T23:33:42.258Z,80.93
2018-04-24T23:36:10.518Z,81.91
2018-04-24T23:38:38.785Z,81.48
2018-04-24T23:41:07.079Z,81.92
2018-04-24T23:43:35.345Z,81.63
2018-04-24T23:46:03.735Z,80.74
2018-04-24T23:48:31.994Z,81.03
2018-04-24T23:51:00.264Z,81.55
2018-04-24T23:53:28.576Z,81.04
2018-04-24T23:55:56.948Z,80.11
2018-04-24T23:58:25.242Z,80.16
